createdAt,value
2022-10-22T00:01:03.151Z,97.46
2022-10-22T00:03:29.557Z,97.37
2022-10-22T00:05:56.071Z,97.08
2022-10-22T00:08:22.953Z,96.66
2022-10-22T00:10:49.366Z,96.76
2022-10-22T00:13:16.489Z,96.52
2022-10-22T00:15:42.826Z,95.86
2022-10-22T00:18:09.155Z,95.84
2022-10-22T00:20:36.214Z,96.09
2022-10-22T00:23:02.579Z,95.71
2022-10-22T00:25:28.939Z,95.37
2022-10-22T00:27:55.983Z,94.95
2022-10-22T00:30:22.341Z,93.97
2022-10-22T00:32:48.653Z,93.13
2022-10-22T00:35:15.480Z,93.31
2022-10-22T00:37:41.810Z,93.34
2022-10-22T00:40:08.964Z,93.22
2022-10-22T00:42:35.661Z,93.28
2022-10-22T00:45:11.183Z,93.48
2022-10-22T00:47:50.926Z,93.46
2022-10-22T00:50:24.475Z,93.35
2022-10-22T00:52:51.882Z,93.17
2022-10-22T00:55:20.174Z,92.67
2022-10-22T00:57:48.628Z,92.69
2022-10-22T01:00:15.421Z,93.65
2022-10-22T01:02:42.090Z,93.05
2022-10-22T01:05:09.507Z,93.68
2022-10-22T01:07:41.981Z,93.22
2022-10-22T01:10:23.922Z,93.52
2022-10-22T01:13:19.095Z,93.29
2022-10-22T01:15:53.060Z,93.80
2022-10-22T01:18:44.958Z,94.08
2022-10-22T01:21:16.093Z,93.99
2022-10-22T01:24:20.017Z,94.33
2022-10-22T01:27:08.680Z,94.33
2022-10-22T01:29:40.436Z,94.79
2022-10-22T01:32:17.510Z,95.06
2022-10-22T01:34:49.083Z,95.63
2022-10-22T01:37:18.312Z,95.00
2022-10-22T01:39:47.211Z,95.62
2022-10-22T01:42:14.433Z,95.77
2022-10-22T01:44:41.547Z,95.23
2022-10-22T01:47:17.023Z,95.35
2022-10-22T01:50:02.216Z,95.14
2022-10-22T01:52:46.877Z,95.16
2022-10-22T01:55:48.918Z,95.26
2022-10-22T01:58:30.438Z,95.04
2022-10-22T02:01:06.077Z,95.46
2022-10-22T02:03:48.207Z,95.71
2022-10-22T02:06:21.122Z,95.71
2022-10-22T02:08:49.379Z,95.46
2022-10-22T02:11:16.278Z,95.69
2022-10-22T02:13:50.200Z,95.19
2022-10-22T02:16:22.004Z,94.78
2022-10-22T02:18:54.079Z,95.02
2022-10-22T02:21:20.448Z,95.10
2022-10-22T02:23:46.830Z,95.94
2022-10-22T02:26:23.344Z,95.83
2022-10-22T02:29:08.356Z,95.78
2022-10-22T02:31:39.253Z,96.27
2022-10-22T02:34:10.153Z,96.78
2022-10-22T02:36:39.706Z,97.16
2022-10-22T02:39:07.777Z,97.38
2022-10-22T02:41:34.764Z,97.64
2022-10-22T02:44:03.471Z,97.65
2022-10-22T02:46:30.386Z,98.20
2022-10-22T02:48:56.710Z,98.08
2022-10-22T02:51:23.064Z,98.25
2022-10-22T02:53:49.750Z,97.71
2022-10-22T02:56:16.458Z,98.20
2022-10-22T02:58:42.775Z,98.47
2022-10-22T03:01:11.338Z,98.38
2022-10-22T03:03:40.595Z,98.64
2022-10-22T03:06:07.273Z,98.72
2022-10-22T03:08:33.584Z,99.08
2022-10-22T03:11:00.503Z,98.39
2022-10-22T03:13:26.900Z,97.86
2022-10-22T03:15:53.195Z,98.55
2022-10-22T03:18:19.974Z,98.90
2022-10-22T03:20:46.378Z,98.74
2022-10-22T03:23:16.195Z,98.84
2022-10-22T03:25:44.991Z,98.68
2022-10-22T03:28:15.099Z,98.96
2022-10-22T03:30:41.411Z,99.04
2022-10-22T03:33:08.422Z,99.02
2022-10-22T03:35:44.559Z,98.85
2022-10-22T03:38:11.977Z,98.23
2022-10-22T03:40:39.004Z,98.30
2022-10-22T03:43:05.515Z,98.77
2022-10-22T03:45:31.924Z,98.66
2022-10-22T03:47:58.795Z,98.33
2022-10-22T03:50:25.190Z,99.10
2022-10-22T03:52:53.155Z,98.49
2022-10-22T03:55:19.965Z,98.05
2022-10-22T03:57:46.692Z,97.88
2022-10-22T04:00:13.175Z,97.69
2022-10-22T04:02:39.891Z,97.17
2022-10-22T04:05:07.173Z,97.76
2022-10-22T04:07:33.706Z,97.92
2022-10-22T04:10:00.556Z,97.66
2022-10-22T04:12:26.963Z,97.85
2022-10-22T04:14:53.304Z,97.76
2022-10-22T04:17:20.020Z,97.32
2022-10-22T04:19:46.898Z,97.67
2022-10-22T04:22:13.211Z,97.41
2022-10-22T04:24:39.649Z,98.15
2022-10-22T04:27:06.553Z,97.59
2022-10-22T04:29:32.907Z,97.51
2022-10-22T04:31:59.256Z,97.82
2022-10-22T04:34:29.269Z,97.69
2022-10-22T04:36:55.763Z,97.92
2022-10-22T04:39:22.253Z,97.71
2022-10-22T04:41:49.483Z,97.67
2022-10-22T04:44:16.784Z,97.55
2022-10-22T04:46:44.518Z,97.68
2022-10-22T04:49:11.163Z,97.64
2022-10-22T04:51:37.563Z,97.12
2022-10-22T04:54:04.048Z,97.77
2022-10-22T04:56:32.199Z,97.33
2022-10-22T04:59:04.179Z,97.56
2022-10-22T05:01:40.069Z,97.62
2022-10-22T05:04:13.339Z,97.87
2022-10-22T05:06:40.260Z,97.80
2022-10-22T05:09:10.700Z,97.92
2022-10-22T05:11:41.782Z,97.91
2022-10-22T05:14:09.410Z,97.93
2022-10-22T05:16:36.096Z,98.14
2022-10-22T05:19:03.326Z,97.89
2022-10-22T05:21:29.936Z,97.98
2022-10-22T05:23:59.723Z,97.88
2022-10-22T05:26:28.209Z,97.94
2022-10-22T05:28:55.256Z,97.81
2022-10-22T05:31:21.734Z,97.95
2022-10-22T05:33:48.269Z,97.66
2022-10-22T05:36:21.513Z,97.96
2022-10-22T05:38:48.682Z,98.04
2022-10-22T05:41:18.541Z,97.51
2022-10-22T05:43:45.087Z,97.75
2022-10-22T05:46:22.177Z,97.76
2022-10-22T05:48:56.717Z,97.24
2022-10-22T05:51:24.706Z,97.68
2022-10-22T05:53:56.746Z,97.18
2022-10-22T05:56:24.014Z,96.83
2022-10-22T05:58:51.391Z,96.70
2022-10-22T06:01:23.010Z,96.85
2022-10-22T06:03:52.934Z,97.13
2022-10-22T06:06:36.640Z,96.86
2022-10-22T06:09:30.726Z,96.97
2022-10-22T06:11:58.464Z,96.39
2022-10-22T06:14:25.499Z,96.67
2022-10-22T06:16:52.646Z,96.50
2022-10-22T06:19:21.624Z,96.97
2022-10-22T06:21:48.644Z,96.01
2022-10-22T06:24:16.356Z,96.25
2022-10-22T06:26:42.860Z,96.33
2022-10-22T06:29:10.117Z,96.09
2022-10-22T06:31:37.334Z,95.66
2022-10-22T06:34:05.779Z,95.70
2022-10-22T06:36:32.450Z,95.56
2022-10-22T06:38:59.335Z,95.70
2022-10-22T06:41:29.529Z,96.10
2022-10-22T06:43:57.904Z,95.51
2022-10-22T06:46:25.021Z,96.12
2022-10-22T06:48:57.812Z,95.62
2022-10-22T06:51:25.260Z,95.16
2022-10-22T06:53:52.738Z,95.24
2022-10-22T06:56:22.091Z,95.02
2022-10-22T06:58:49.644Z,94.99
2022-10-22T07:01:17.337Z,95.19
2022-10-22T07:03:44.223Z,94.97
2022-10-22T07:06:12.894Z,94.91
2022-10-22T07:08:40.417Z,95.17
2022-10-22T07:11:23.083Z,95.05
2022-10-22T07:13:50.493Z,94.58
2022-10-22T07:16:18.204Z,93.98
2022-10-22T07:18:45.736Z,92.92
2022-10-22T07:21:14.334Z,93.18
2022-10-22T07:23:40.784Z,92.76
2022-10-22T07:26:08.990Z,92.97
2022-10-22T07:28:37.888Z,93.29
2022-10-22T07:31:04.686Z,92.68
2022-10-22T07:33:31.127Z,91.78
2022-10-22T07:35:59.806Z,92.40
2022-10-22T07:38:26.962Z,92.26
2022-10-22T07:40:53.382Z,92.05
2022-10-22T07:43:19.734Z,91.26
2022-10-22T07:45:46.515Z,92.25
2022-10-22T07:48:13.154Z,91.50
2022-10-22T07:50:39.532Z,92.74
2022-10-22T07:53:05.907Z,92.74
2022-10-22T07:55:33.600Z,92.61
2022-10-22T07:58:00.015Z,92.45
2022-10-22T08:00:26.483Z,92.44
2022-10-22T08:02:53.230Z,91.98
2022-10-22T08:05:19.662Z,92.72
2022-10-22T08:07:46.003Z,91.77
2022-10-22T08:10:12.718Z,91.92
2022-10-22T08:12:39.855Z,92.12
2022-10-22T08:15:07.154Z,90.93
2022-10-22T08:17:33.883Z,89.53
2022-10-22T08:20:00.333Z,88.79
2022-10-22T08:22:26.891Z,89.27
2022-10-22T08:24:53.816Z,90.16
2022-10-22T08:27:20.164Z,88.74
2022-10-22T08:29:46.478Z,89.39
2022-10-22T08:32:13.862Z,90.13
2022-10-22T08:34:40.210Z,89.99
2022-10-22T08:37:08.376Z,89.90
2022-10-22T08:39:35.090Z,89.89
2022-10-22T08:42:36.122Z,90.85
2022-10-22T08:45:08.586Z,91.58
2022-10-22T08:47:44.267Z,90.85
2022-10-22T08:50:15.572Z,90.23
2022-10-22T08:52:46.744Z,89.44
2022-10-22T08:55:15.367Z,88.61
2022-10-22T08:58:03.606Z,88.29
2022-10-22T09:00:47.627Z,88.74
2022-10-22T09:03:45.797Z,87.71
2022-10-22T09:06:16.983Z,88.38
2022-10-22T09:08:45.482Z,86.66
2022-10-22T09:11:28.119Z,88.67
2022-10-22T09:13:57.139Z,88.33
2022-10-22T09:16:52.539Z,88.19
2022-10-22T09:19:51.018Z,87.27
2022-10-22T09:22:42.232Z,85.45
2022-10-22T09:25:26.364Z,87.16
2022-10-22T09:27:58.439Z,86.42
2022-10-22T09:30:30.756Z,86.41
2022-10-22T09:33:06.689Z,86.45
2022-10-22T09:35:44.238Z,84.34
2022-10-22T09:38:14.535Z,85.10
2022-10-22T09:40:46.487Z,84.09
2022-10-22T09:43:14.924Z,82.34
2022-10-22T09:45:41.775Z,82.04
2022-10-22T09:48:21.517Z,83.65
2022-10-22T09:50:54.894Z,81.18
2022-10-22T09:53:43.551Z,81.66
2022-10-22T09:56:22.775Z,78.85
2022-10-22T09:58:51.135Z,79.00
2022-10-22T10:01:26.227Z,79.87
2022-10-22T10:03:53.087Z,78.70
2022-10-22T10:06:22.821Z,78.63
2022-10-22T10:08:50.470Z,77.85
2022-10-22T10:11:29.414Z,76.99
2022-10-22T10:14:09.355Z,77.21
2022-10-22T10:17:00.612Z,79.37
2022-10-22T10:20:08.643Z,79.65
2022-10-22T10:22:41.910Z,81.00
2022-10-22T10:25:31.793Z,81.24
2022-10-22T10:27:58.727Z,80.27
2022-10-22T10:30:25.117Z,81.04
2022-10-22T10:33:16.351Z,81.46
2022-10-22T10:35:50.123Z,80.76
2022-10-22T10:38:24.740Z,79.65
2022-10-22T10:41:00.866Z,78.19
2022-10-22T10:43:39.262Z,78.59
2022-10-22T10:46:32.189Z,79.93
2022-10-22T10:49:09.958Z,78.57
2022-10-22T10:52:04.250Z,77.00
2022-10-22T10:57:21.059Z,76.46
2022-10-22T11:00:02.707Z,77.12
2022-10-22T11:02:47.867Z,76.49
2022-10-22T11:05:41.799Z,74.90
2022-10-22T11:08:21.749Z,77.32
2022-10-22T11:11:06.381Z,78.28
2022-10-22T11:14:02.667Z,77.76
2022-10-22T11:16:38.894Z,75.29
2022-10-22T11:19:22.510Z,74.42
2022-10-22T11:22:11.995Z,75.88
2022-10-22T11:24:46.378Z,74.41
2022-10-22T11:27:23.895Z,75.20
2022-10-22T11:29:59.556Z,75.42
2022-10-22T11:32:27.827Z,72.96
2022-10-22T11:34:57.939Z,72.34
2022-10-22T11:37:27.250Z,72.51
2022-10-22T11:40:08.140Z,74.40
2022-10-22T11:42:42.116Z,72.44
2022-10-22T11:45:15.145Z,74.21
2022-10-22T11:47:56.631Z,71.21
2022-10-22T11:50:41.324Z,71.97
2022-10-22T11:53:20.791Z,69.74
2022-10-22T11:55:50.850Z,73.04
2022-10-22T11:58:29.064Z,74.06
2022-10-22T12:00:58.851Z,71.10
2022-10-22T12:03:31.133Z,72.67
2022-10-22T12:06:12.812Z,70.57
2022-10-22T12:08:45.677Z,73.36
2022-10-22T12:11:12.005Z,71.45
2022-10-22T12:14:00.202Z,70.55
2022-10-22T12:16:37.783Z,72.67
2022-10-22T12:19:24.009Z,73.50
2022-10-22T12:22:18.336Z,73.70
2022-10-22T12:24:53.869Z,72.86
2022-10-22T12:27:41.491Z,73.71
2022-10-22T12:30:23.612Z,73.41
2022-10-22T12:32:55.966Z,73.15
2022-10-22T12:35:25.327Z,74.19
2022-10-22T12:37:55.282Z,73.90
2022-10-22T12:40:31.109Z,74.08
2022-10-22T12:43:00.045Z,74.39
2022-10-22T12:45:29.192Z,73.86
2022-10-22T12:47:58.615Z,71.89
2022-10-22T12:50:37.376Z,71.86
2022-10-22T12:53:17.418Z,70.24
2022-10-22T12:55:48.099Z,70.69
2022-10-22T12:58:19.035Z,70.40
2022-10-22T13:00:46.596Z,69.33
2022-10-22T13:03:26.991Z,69.16
2022-10-22T13:05:53.738Z,70.11
2022-10-22T13:10:56.942Z,69.73
2022-10-22T13:13:40.641Z,68.98
2022-10-22T13:16:28.030Z,66.55
2022-10-22T13:18:55.223Z,65.35
2022-10-22T13:21:49.895Z,62.36
2022-10-22T13:24:21.650Z,62.19
2022-10-22T13:26:51.204Z,60.76
2022-10-22T13:29:19.347Z,61.41
2022-10-22T13:31:54.222Z,59.47
2022-10-22T13:34:24.432Z,60.39
2022-10-22T13:36:51.781Z,60.56
2022-10-22T13:39:23.895Z,61.52
2022-10-22T13:41:51.380Z,60.66
2022-10-22T13:44:19.212Z,59.87
2022-10-22T13:46:47.657Z,59.69
2022-10-22T13:49:18.339Z,61.92
2022-10-22T13:51:44.916Z,60.27
2022-10-22T13:54:20.909Z,64.24
2022-10-22T13:56:47.329Z,62.84
2022-10-22T13:59:14.197Z,62.40
2022-10-22T14:01:42.220Z,64.71
2022-10-22T14:04:13.690Z,64.05
2022-10-22T14:06:40.062Z,64.14
2022-10-22T14:09:13.810Z,65.02
2022-10-22T14:11:40.210Z,65.60
2022-10-22T14:14:08.990Z,66.70
2022-10-22T14:16:37.406Z,66.86
2022-10-22T14:19:06.591Z,66.19
2022-10-22T14:21:38.022Z,66.13
2022-10-22T14:24:07.100Z,66.48
2022-10-22T14:26:35.813Z,68.39
2022-10-22T14:29:11.676Z,71.22
2022-10-22T14:34:10.572Z,71.71
2022-10-22T14:36:36.928Z,75.32
2022-10-22T14:39:03.499Z,79.81
2022-10-22T14:41:30.228Z,79.45
2022-10-22T14:43:56.632Z,80.35
2022-10-22T14:46:22.972Z,79.09
2022-10-22T14:48:49.766Z,79.37
2022-10-22T14:51:19.109Z,80.59
2022-10-22T14:53:46.587Z,82.12
2022-10-22T14:56:14.875Z,79.77
2022-10-22T14:58:41.498Z,79.87
2022-10-22T15:01:09.670Z,79.74
2022-10-22T15:03:36.611Z,80.49
2022-10-22T15:06:03.467Z,80.25
2022-10-22T15:08:30.679Z,80.24
2022-10-22T15:11:02.210Z,80.92
2022-10-22T15:13:30.172Z,81.53
2022-10-22T15:15:57.891Z,81.59
2022-10-22T15:18:25.039Z,81.34
2022-10-22T15:20:55.788Z,82.37
2022-10-22T15:23:22.710Z,81.93
2022-10-22T15:25:49.114Z,82.96
2022-10-22T15:28:15.474Z,83.53
2022-10-22T15:30:42.188Z,83.63
2022-10-22T15:33:08.779Z,83.96
2022-10-22T15:35:35.151Z,86.94
2022-10-22T15:38:01.835Z,87.97
2022-10-22T15:40:28.242Z,86.96
2022-10-22T15:42:54.751Z,88.13
2022-10-22T15:45:22.761Z,86.78
2022-10-22T15:47:49.739Z,87.72
2022-10-22T15:50:16.815Z,87.72
2022-10-22T15:52:43.540Z,87.48
2022-10-22T15:55:10.506Z,88.04
2022-10-22T15:57:38.344Z,88.85
2022-10-22T16:00:06.844Z,88.35
2022-10-22T16:02:33.484Z,87.71
2022-10-22T16:04:59.835Z,88.79
2022-10-22T16:07:27.066Z,89.38
2022-10-22T16:09:59.802Z,88.89
2022-10-22T16:12:26.340Z,90.36
2022-10-22T16:14:52.739Z,91.66
2022-10-22T16:17:19.072Z,90.96
2022-10-22T16:19:45.912Z,90.67
2022-10-22T16:22:13.720Z,90.38
2022-10-22T16:24:43.331Z,90.28
2022-10-22T16:27:10.191Z,90.19
2022-10-22T16:29:40.005Z,90.64
2022-10-22T16:32:06.809Z,90.41
2022-10-22T16:34:33.240Z,90.26
2022-10-22T16:36:59.599Z,90.82
2022-10-22T16:39:26.140Z,90.84
2022-10-22T16:41:52.444Z,91.37
2022-10-22T16:44:18.783Z,91.10
2022-10-22T16:46:45.519Z,91.40
2022-10-22T16:49:11.895Z,91.32
2022-10-22T16:51:39.199Z,92.14
2022-10-22T16:54:08.395Z,92.74
2022-10-22T16:56:37.796Z,92.41
2022-10-22T16:59:06.024Z,92.23
2022-10-22T17:01:36.753Z,92.51
2022-10-22T17:04:05.964Z,91.97
2022-10-22T17:06:32.331Z,91.88
2022-10-22T17:08:59.263Z,92.17
2022-10-22T17:11:25.697Z,91.88
2022-10-22T17:13:54.072Z,92.33
2022-10-22T17:16:24.354Z,92.04
2022-10-22T17:18:51.099Z,92.14
2022-10-22T17:21:18.512Z,91.90
2022-10-22T17:23:45.710Z,92.53
2022-10-22T17:26:22.550Z,92.63
2022-10-22T17:28:49.936Z,92.67
2022-10-22T17:31:19.539Z,93.07
2022-10-22T17:33:46.626Z,92.95
2022-10-22T17:36:14.227Z,92.75
2022-10-22T17:38:42.210Z,93.07
2022-10-22T17:41:12.567Z,93.66
2022-10-22T17:43:41.626Z,92.76
2022-10-22T17:46:13.449Z,92.67
2022-10-22T17:48:39.980Z,92.57
2022-10-22T17:51:11.311Z,93.75
2022-10-22T17:53:42.782Z,93.64
2022-10-22T17:56:12.781Z,93.73
2022-10-22T17:58:39.115Z,95.41
2022-10-22T18:01:05.979Z,95.37
2022-10-22T18:03:34.080Z,95.84
2022-10-22T18:06:10.492Z,95.73
2022-10-22T18:08:37.415Z,96.05
2022-10-22T18:11:12.415Z,94.94
2022-10-22T18:13:39.260Z,94.20
2022-10-22T18:16:06.041Z,94.08
2022-10-22T18:18:34.029Z,93.58
2022-10-22T18:21:01.042Z,93.49
2022-10-22T18:23:27.592Z,93.94
2022-10-22T18:25:54.119Z,94.15
2022-10-22T18:28:21.117Z,93.99
2022-10-22T18:30:48.091Z,94.42
2022-10-22T18:33:16.398Z,94.43
2022-10-22T18:35:42.904Z,94.84
2022-10-22T18:38:10.247Z,94.85
2022-10-22T18:40:44.324Z,94.68
2022-10-22T18:43:10.627Z,94.76
2022-10-22T18:45:42.176Z,94.60
2022-10-22T18:48:08.654Z,94.87
2022-10-22T18:50:34.967Z,95.24
2022-10-22T18:53:01.692Z,94.76
2022-10-22T18:55:28.010Z,95.33
2022-10-22T18:57:54.331Z,94.72
2022-10-22T19:00:21.124Z,94.73
2022-10-22T19:02:47.452Z,94.33
2022-10-22T19:05:13.759Z,94.17
2022-10-22T19:07:41.589Z,94.50
2022-10-22T19:10:08.537Z,94.62
2022-10-22T19:12:35.078Z,94.38
2022-10-22T19:15:02.018Z,94.55
2022-10-22T19:17:28.311Z,94.50
2022-10-22T19:19:54.635Z,94.56
2022-10-22T19:22:20.980Z,94.64
2022-10-22T19:24:50.683Z,94.63
2022-10-22T19:27:18.064Z,94.35
2022-10-22T19:29:45.890Z,95.34
2022-10-22T19:32:12.897Z,95.51
2022-10-22T19:34:40.987Z,95.01
2022-10-22T19:37:08.502Z,95.15
2022-10-22T19:39:35.025Z,95.01
2022-10-22T19:42:01.556Z,94.62
2022-10-22T19:44:28.497Z,94.58
2022-10-22T19:46:54.815Z,94.61
2022-10-22T19:49:22.973Z,94.78
2022-10-22T19:51:50.041Z,94.55
2022-10-22T19:54:18.643Z,94.86
2022-10-22T19:56:46.395Z,95.08
2022-10-22T19:59:15.088Z,95.03
2022-10-22T20:01:41.919Z,94.47
2022-10-22T20:04:13.695Z,94.35
2022-10-22T20:06:40.519Z,94.20
2022-10-22T20:09:07.066Z,93.90
2022-10-22T20:11:33.466Z,93.82
2022-10-22T20:14:00.312Z,94.38
2022-10-22T20:16:29.623Z,94.97
2022-10-22T20:19:01.141Z,94.29
2022-10-22T20:21:27.838Z,93.98
2022-10-22T20:23:56.244Z,94.53
2022-10-22T20:26:24.847Z,94.98
2022-10-22T20:28:51.845Z,94.99
2022-10-22T20:31:20.919Z,94.25
2022-10-22T20:33:48.081Z,93.86
2022-10-22T20:36:18.297Z,94.12
2022-10-22T20:38:48.366Z,94.33
2022-10-22T20:41:21.019Z,94.21
2022-10-22T20:43:49.704Z,94.59
2022-10-22T20:46:24.983Z,94.32
2022-10-22T20:48:53.838Z,94.00
2022-10-22T20:51:20.826Z,94.05
2022-10-22T20:53:47.523Z,93.72
2022-10-22T20:56:14.782Z,93.36
2022-10-22T20:58:47.477Z,93.32
2022-10-22T21:01:24.665Z,93.74
2022-10-22T21:03:52.752Z,93.33
2022-10-22T21:06:23.487Z,94.16
2022-10-22T21:08:51.074Z,94.18
2022-10-22T21:11:18.245Z,94.46
2022-10-22T21:13:45.112Z,93.99
2022-10-22T21:16:13.455Z,93.82
2022-10-22T21:18:39.979Z,94.04
2022-10-22T21:21:08.164Z,93.88
2022-10-22T21:23:35.775Z,93.79
2022-10-22T21:26:02.933Z,93.42
2022-10-22T21:31:03.259Z,93.53
2022-10-22T21:33:29.848Z,93.82
2022-10-22T21:35:57.027Z,93.45
2022-10-22T21:38:25.759Z,93.55
2022-10-22T21:40:52.278Z,93.81
2022-10-22T21:43:18.979Z,93.19
2022-10-22T21:45:45.551Z,93.64
2022-10-22T21:48:13.675Z,94.11
2022-10-22T21:50:42.111Z,94.29
2022-10-22T21:53:09.318Z,94.09
2022-10-22T21:55:41.806Z,94.07
2022-10-22T21:58:09.459Z,94.96
2022-10-22T22:00:36.680Z,94.30
2022-10-22T22:03:05.869Z,94.21
2022-10-22T22:05:32.189Z,93.67
2022-10-22T22:07:58.858Z,94.40
2022-10-22T22:10:26.537Z,94.05
2022-10-22T22:12:52.968Z,93.92
2022-10-22T22:15:20.789Z,93.88
2022-10-22T22:17:47.397Z,93.84
2022-10-22T22:20:16.368Z,93.05
2022-10-22T22:22:43.513Z,93.39
2022-10-22T22:25:10.175Z,93.14
2022-10-22T22:27:36.577Z,93.75
2022-10-22T22:30:04.278Z,94.06
2022-10-22T22:32:30.628Z,94.64
2022-10-22T22:34:56.962Z,94.22
2022-10-22T22:37:23.923Z,94.32
2022-10-22T22:39:50.230Z,94.39
2022-10-22T22:42:16.548Z,94.56
2022-10-22T22:44:43.553Z,94.98
2022-10-22T22:47:10.034Z,95.06
2022-10-22T22:49:36.853Z,94.55
2022-10-22T22:52:04.879Z,94.06
2022-10-22T22:54:31.235Z,94.70
2022-10-22T22:56:57.997Z,94.43
2022-10-22T22:59:24.348Z,94.41
2022-10-22T23:01:50.808Z,94.10
2022-10-22T23:04:24.214Z,93.73
2022-10-22T23:06:51.411Z,94.38
2022-10-22T23:11:47.806Z,94.54
2022-10-22T23:14:16.461Z,94.62
2022-10-22T23:16:46.410Z,94.21
2022-10-22T23:19:15.739Z,94.55
2022-10-22T23:21:46.985Z,93.86
2022-10-22T23:24:18.239Z,94.61
2022-10-22T23:26:46.897Z,94.20
2022-10-22T23:29:17.231Z,94.51
2022-10-22T23:31:45.859Z,94.45
2022-10-22T23:34:14.614Z,95.31
2022-10-22T23:36:41.160Z,95.13
2022-10-22T23:39:11.895Z,94.95
2022-10-22T23:41:38.288Z,94.80
2022-10-22T23:44:05.706Z,94.06
2022-10-22T23:46:33.892Z,94.73
2022-10-22T23:49:01.152Z,94.67
2022-10-22T23:51:28.198Z,94.35
2022-10-22T23:53:59.689Z,94.38
2022-10-22T23:56:27.014Z,94.72
2022-10-22T23:58:54.290Z,94.81
